sensor_id;sensor_type;location;lat;lon;timestamp;P1;durP1;ratioP1;P2;durP2;ratioP2
44440;SDS011;30146;52.268;20.944;2022-12-31T00:02:20;46.20;;;24.60;;
44440;SDS011;30146;52.268;20.944;2022-12-31T00:04:52;59.60;;;28.90;;
44440;SDS011;30146;52.268;20.944;2022-12-31T00:07:23;48.80;;;25.20;;
44440;SDS011;30146;52.268;20.944;2022-12-31T00:09:55;42.50;;;24.20;;
44440;SDS011;30146;52.268;20.944;2022-12-31T00:12:26;38.20;;;23.20;;
44440;SDS011;30146;52.268;20.944;2022-12-31T00:14:57;46.60;;;25.90;;
44440;SDS011;30146;52.268;20.944;2022-12-31T00:17:28;45.30;;;24.40;;
44440;SDS011;30146;52.268;20.944;2022-12-31T00:19:59;46.40;;;25.40;;
44440;SDS011;30146;52.268;20.944;2022-12-31T00:22:29;49.60;;;28.70;;
44440;SDS011;30146;52.268;20.944;2022-12-31T00:25:00;60.60;;;29.70;;
44440;SDS011;30146;52.268;20.944;2022-12-31T00:27:32;48.70;;;24.70;;
44440;SDS011;30146;52.268;20.944;2022-12-31T00:30:03;43.40;;;24.30;;
44440;SDS011;30146;52.268;20.944;2022-12-31T00:32:35;42.00;;;23.30;;
44440;SDS011;30146;52.268;20.944;2022-12-31T00:35:06;51.20;;;26.60;;
44440;SDS011;30146;52.268;20.944;2022-12-31T00:37:37;44.60;;;24.00;;
44440;SDS011;30146;52.268;20.944;2022-12-31T00:40:10;53.30;;;27.50;;
44440;SDS011;30146;52.268;20.944;2022-12-31T00:42:41;46.50;;;26.80;;
44440;SDS011;30146;52.268;20.944;2022-12-31T00:45:12;44.30;;;24.90;;
44440;SDS011;30146;52.268;20.944;2022-12-31T00:47:43;55.40;;;26.00;;
44440;SDS011;30146;52.268;20.944;2022-12-31T00:50:13;49.50;;;25.40;;
44440;SDS011;30146;52.268;20.944;2022-12-31T00:52:44;47.60;;;22.80;;
44440;SDS011;30146;52.268;20.944;2022-12-31T00:55:15;45.40;;;23.70;;
44440;SDS011;30146;52.268;20.944;2022-12-31T00:57:46;44.70;;;22.80;;
44440;SDS011;30146;52.268;20.944;2022-12-31T01:00:17;48.40;;;28.20;;
44440;SDS011;30146;52.268;20.944;2022-12-31T01:02:48;52.20;;;29.00;;
44440;SDS011;30146;52.268;20.944;2022-12-31T01:05:19;57.20;;;28.40;;
44440;SDS011;30146;52.268;20.944;2022-12-31T01:07:50;44.10;;;24.60;;
44440;SDS011;30146;52.268;20.944;2022-12-31T01:10:21;50.40;;;25.20;;
44440;SDS011;30146;52.268;20.944;2022-12-31T01:13:05;47.70;;;24.10;;
44440;SDS011;30146;52.268;20.944;2022-12-31T01:15:36;45.10;;;24.20;;
44440;SDS011;30146;52.268;20.944;2022-12-31T01:18:08;46.00;;;24.90;;
44440;SDS011;30146;52.268;20.944;2022-12-31T01:20:39;37.20;;;21.20;;
44440;SDS011;30146;52.268;20.944;2022-12-31T01:23:11;51.30;;;26.80;;
44440;SDS011;30146;52.268;20.944;2022-12-31T01:25:42;48.60;;;26.40;;
44440;SDS011;30146;52.268;20.944;2022-12-31T01:28:13;45.40;;;26.00;;
44440;SDS011;30146;52.268;20.944;2022-12-31T01:30:43;42.30;;;24.00;;
44440;SDS011;30146;52.268;20.944;2022-12-31T01:33:14;46.50;;;23.30;;
44440;SDS011;30146;52.268;20.944;2022-12-31T01:35:45;48.60;;;24.40;;
44440;SDS011;30146;52.268;20.944;2022-12-31T01:38:16;34.10;;;21.20;;
44440;SDS011;30146;52.268;20.944;2022-12-31T01:40:46;40.00;;;23.30;;
44440;SDS011;30146;52.268;20.944;2022-12-31T01:43:18;40.00;;;22.80;;
44440;SDS011;30146;52.268;20.944;2022-12-31T01:45:50;41.00;;;23.20;;
44440;SDS011;30146;52.268;20.944;2022-12-31T01:48:23;43.10;;;24.70;;
44440;SDS011;30146;52.268;20.944;2022-12-31T01:50:55;38.30;;;21.40;;
44440;SDS011;30146;52.268;20.944;2022-12-31T01:53:26;38.10;;;22.20;;
44440;SDS011;30146;52.268;20.944;2022-12-31T01:55:57;32.60;;;19.00;;
44440;SDS011;30146;52.268;20.944;2022-12-31T01:58:29;38.40;;;22.00;;
44440;SDS011;30146;52.268;20.944;2022-12-31T02:01:04;41.70;;;22.30;;
44440;SDS011;30146;52.268;20.944;2022-12-31T02:03:38;25.10;;;15.30;;
44440;SDS011;30146;52.268;20.944;2022-12-31T02:06:12;46.50;;;23.30;;
44440;SDS011;30146;52.268;20.944;2022-12-31T02:08:46;42.10;;;22.90;;
44440;SDS011;30146;52.268;20.944;2022-12-31T02:11:22;32.00;;;19.30;;
44440;SDS011;30146;52.268;20.944;2022-12-31T02:13:55;38.40;;;20.60;;
44440;SDS011;30146;52.268;20.944;2022-12-31T02:16:31;35.00;;;20.40;;
44440;SDS011;30146;52.268;20.944;2022-12-31T02:19:13;24.80;;;15.80;;
44440;SDS011;30146;52.268;20.944;2022-12-31T02:22:06;34.30;;;19.00;;
44440;SDS011;30146;52.268;20.944;2022-12-31T02:27:48;35.30;;;18.60;;
44440;SDS011;30146;52.268;20.944;2022-12-31T02:30:28;44.90;;;20.60;;
44440;SDS011;30146;52.268;20.944;2022-12-31T02:33:06;40.70;;;20.90;;
44440;SDS011;30146;52.268;20.944;2022-12-31T02:35:46;33.30;;;19.40;;
44440;SDS011;30146;52.268;20.944;2022-12-31T02:38:23;30.10;;;17.50;;
44440;SDS011;30146;52.268;20.944;2022-12-31T02:40:58;31.30;;;17.90;;
44440;SDS011;30146;52.268;20.944;2022-12-31T02:43:29;35.10;;;17.90;;
44440;SDS011;30146;52.268;20.944;2022-12-31T02:46:03;24.70;;;15.80;;
44440;SDS011;30146;52.268;20.944;2022-12-31T02:48:45;33.50;;;18.40;;
44440;SDS011;30146;52.268;20.944;2022-12-31T02:51:26;35.20;;;18.00;;
44440;SDS011;30146;52.268;20.944;2022-12-31T02:54:09;35.70;;;18.80;;
44440;SDS011;30146;52.268;20.944;2022-12-31T02:56:50;31.50;;;18.40;;
44440;SDS011;30146;52.268;20.944;2022-12-31T02:59:30;28.90;;;16.90;;
44440;SDS011;30146;52.268;20.944;2022-12-31T03:02:23;28.70;;;17.60;;
44440;SDS011;30146;52.268;20.944;2022-12-31T03:04:59;31.40;;;16.60;;
44440;SDS011;30146;52.268;20.944;2022-12-31T03:07:31;29.10;;;15.50;;
44440;SDS011;30146;52.268;20.944;2022-12-31T03:10:02;23.40;;;15.00;;
44440;SDS011;30146;52.268;20.944;2022-12-31T03:12:34;32.30;;;18.20;;
44440;SDS011;30146;52.268;20.944;2022-12-31T03:15:16;34.40;;;17.50;;
44440;SDS011;30146;52.268;20.944;2022-12-31T03:17:55;26.00;;;17.40;;
44440;SDS011;30146;52.268;20.944;2022-12-31T03:20:30;24.00;;;16.30;;
44440;SDS011;30146;52.268;20.944;2022-12-31T03:23:21;27.60;;;15.00;;
44440;SDS011;30146;52.268;20.944;2022-12-31T03:25:53;32.80;;;15.30;;
44440;SDS011;30146;52.268;20.944;2022-12-31T03:28:26;26.90;;;15.70;;
44440;SDS011;30146;52.268;20.944;2022-12-31T03:30:59;24.00;;;13.90;;
44440;SDS011;30146;52.268;20.944;2022-12-31T03:33:31;29.70;;;15.50;;
44440;SDS011;30146;52.268;20.944;2022-12-31T03:36:05;23.80;;;14.20;;
44440;SDS011;30146;52.268;20.944;2022-12-31T03:38:41;26.70;;;16.40;;
44440;SDS011;30146;52.268;20.944;2022-12-31T03:41:19;23.60;;;14.60;;
44440;SDS011;30146;52.268;20.944;2022-12-31T03:43:50;24.50;;;14.60;;
44440;SDS011;30146;52.268;20.944;2022-12-31T03:46:20;25.60;;;14.90;;
44440;SDS011;30146;52.268;20.944;2022-12-31T03:48:51;25.70;;;14.30;;
44440;SDS011;30146;52.268;20.944;2022-12-31T03:51:22;21.30;;;13.20;;
44440;SDS011;30146;52.268;20.944;2022-12-31T03:53:53;20.00;;;13.40;;
44440;SDS011;30146;52.268;20.944;2022-12-31T03:56:24;27.50;;;14.50;;
44440;SDS011;30146;52.268;20.944;2022-12-31T03:58:54;26.20;;;14.60;;
44440;SDS011;30146;52.268;20.944;2022-12-31T04:01:25;21.40;;;12.50;;
44440;SDS011;30146;52.268;20.944;2022-12-31T04:03:56;26.20;;;14.30;;
44440;SDS011;30146;52.268;20.944;2022-12-31T04:06:27;20.30;;;13.20;;
44440;SDS011;30146;52.268;20.944;2022-12-31T04:08:57;27.30;;;13.80;;
44440;SDS011;30146;52.268;20.944;2022-12-31T04:11:28;20.30;;;12.40;;
44440;SDS011;30146;52.268;20.944;2022-12-31T04:14:00;23.60;;;13.20;;
44440;SDS011;30146;52.268;20.944;2022-12-31T04:16:31;25.00;;;13.60;;
44440;SDS011;30146;52.268;20.944;2022-12-31T04:19:02;25.10;;;12.80;;
44440;SDS011;30146;52.268;20.944;2022-12-31T04:21:33;20.50;;;13.60;;
44440;SDS011;30146;52.268;20.944;2022-12-31T04:24:05;23.20;;;12.10;;
44440;SDS011;30146;52.268;20.944;2022-12-31T04:26:36;19.20;;;12.40;;
44440;SDS011;30146;52.268;20.944;2022-12-31T04:29:07;21.70;;;13.40;;
44440;SDS011;30146;52.268;20.944;2022-12-31T04:31:38;25.60;;;13.60;;
44440;SDS011;30146;52.268;20.944;2022-12-31T04:34:09;21.20;;;13.80;;
44440;SDS011;30146;52.268;20.944;2022-12-31T04:36:40;23.60;;;13.60;;
44440;SDS011;30146;52.268;20.944;2022-12-31T04:39:11;22.80;;;13.10;;
44440;SDS011;30146;52.268;20.944;2022-12-31T04:41:41;23.90;;;13.80;;
44440;SDS011;30146;52.268;20.944;2022-12-31T04:44:12;21.20;;;12.70;;
44440;SDS011;30146;52.268;20.944;2022-12-31T04:46:43;24.80;;;13.50;;
44440;SDS011;30146;52.268;20.944;2022-12-31T04:49:14;25.60;;;13.60;;
44440;SDS011;30146;52.268;20.944;2022-12-31T04:51:44;20.10;;;12.80;;
44440;SDS011;30146;52.268;20.944;2022-12-31T04:54:15;18.10;;;12.80;;
44440;SDS011;30146;52.268;20.944;2022-12-31T04:56:46;22.60;;;13.20;;
44440;SDS011;30146;52.268;20.944;2022-12-31T04:59:17;26.70;;;14.50;;
44440;SDS011;30146;52.268;20.944;2022-12-31T05:01:48;22.40;;;13.20;;
44440;SDS011;30146;52.268;20.944;2022-12-31T05:04:18;25.00;;;14.10;;
44440;SDS011;30146;52.268;20.944;2022-12-31T05:06:49;23.10;;;13.50;;
44440;SDS011;30146;52.268;20.944;2022-12-31T05:09:20;19.80;;;12.40;;
44440;SDS011;30146;52.268;20.944;2022-12-31T05:11:51;20.30;;;12.40;;
44440;SDS011;30146;52.268;20.944;2022-12-31T05:14:21;25.80;;;13.70;;
44440;SDS011;30146;52.268;20.944;2022-12-31T05:16:53;24.60;;;14.30;;
44440;SDS011;30146;52.268;20.944;2022-12-31T05:19:25;25.30;;;15.00;;
44440;SDS011;30146;52.268;20.944;2022-12-31T05:21:56;25.40;;;14.30;;
44440;SDS011;30146;52.268;20.944;2022-12-31T05:24:45;25.20;;;14.10;;
44440;SDS011;30146;52.268;20.944;2022-12-31T05:27:18;24.50;;;13.90;;
44440;SDS011;30146;52.268;20.944;2022-12-31T05:29:50;23.70;;;13.20;;
44440;SDS011;30146;52.268;20.944;2022-12-31T05:32:20;22.50;;;14.30;;
44440;SDS011;30146;52.268;20.944;2022-12-31T05:34:51;23.80;;;14.80;;
44440;SDS011;30146;52.268;20.944;2022-12-31T05:37:22;23.80;;;14.60;;
44440;SDS011;30146;52.268;20.944;2022-12-31T05:39:53;22.40;;;14.00;;
44440;SDS011;30146;52.268;20.944;2022-12-31T05:42:24;31.20;;;18.50;;
44440;SDS011;30146;52.268;20.944;2022-12-31T05:44:56;28.30;;;16.30;;
44440;SDS011;30146;52.268;20.944;2022-12-31T05:47:27;29.50;;;14.90;;
44440;SDS011;30146;52.268;20.944;2022-12-31T05:49:57;22.00;;;14.00;;
44440;SDS011;30146;52.268;20.944;2022-12-31T05:52:28;21.00;;;13.20;;
44440;SDS011;30146;52.268;20.944;2022-12-31T05:54:59;20.60;;;13.30;;
44440;SDS011;30146;52.268;20.944;2022-12-31T05:57:30;20.90;;;11.70;;
44440;SDS011;30146;52.268;20.944;2022-12-31T06:00:01;27.70;;;14.00;;
44440;SDS011;30146;52.268;20.944;2022-12-31T06:02:40;22.70;;;12.80;;
44440;SDS011;30146;52.268;20.944;2022-12-31T06:05:11;20.90;;;13.20;;
44440;SDS011;30146;52.268;20.944;2022-12-31T06:07:42;23.20;;;14.20;;
44440;SDS011;30146;52.268;20.944;2022-12-31T06:10:12;21.60;;;13.50;;
44440;SDS011;30146;52.268;20.944;2022-12-31T06:12:43;23.40;;;14.20;;
44440;SDS011;30146;52.268;20.944;2022-12-31T06:15:14;27.50;;;13.80;;
44440;SDS011;30146;52.268;20.944;2022-12-31T06:17:44;25.50;;;13.80;;
44440;SDS011;30146;52.268;20.944;2022-12-31T06:20:16;24.00;;;14.20;;
44440;SDS011;30146;52.268;20.944;2022-12-31T06:22:47;22.50;;;13.60;;
44440;SDS011;30146;52.268;20.944;2022-12-31T06:25:18;20.90;;;13.10;;
44440;SDS011;30146;52.268;20.944;2022-12-31T06:27:49;17.50;;;11.70;;
44440;SDS011;30146;52.268;20.944;2022-12-31T06:30:20;18.50;;;12.20;;
44440;SDS011;30146;52.268;20.944;2022-12-31T06:32:50;21.40;;;13.40;;
44440;SDS011;30146;52.268;20.944;2022-12-31T06:35:22;25.70;;;12.90;;
44440;SDS011;30146;52.268;20.944;2022-12-31T06:37:53;21.20;;;12.70;;
44440;SDS011;30146;52.268;20.944;2022-12-31T06:40:23;19.50;;;12.60;;
44440;SDS011;30146;52.268;20.944;2022-12-31T06:42:54;20.50;;;12.50;;
44440;SDS011;30146;52.268;20.944;2022-12-31T06:45:27;19.90;;;11.50;;
44440;SDS011;30146;52.268;20.944;2022-12-31T06:47:57;23.70;;;14.40;;
44440;SDS011;30146;52.268;20.944;2022-12-31T06:50:28;24.70;;;14.20;;
44440;SDS011;30146;52.268;20.944;2022-12-31T06:52:59;17.30;;;11.40;;
44440;SDS011;30146;52.268;20.944;2022-12-31T06:55:31;22.30;;;13.20;;
44440;SDS011;30146;52.268;20.944;2022-12-31T06:58:03;26.40;;;12.80;;
44440;SDS011;30146;52.268;20.944;2022-12-31T07:00:35;23.00;;;12.00;;
44440;SDS011;30146;52.268;20.944;2022-12-31T07:03:12;23.10;;;12.10;;
44440;SDS011;30146;52.268;20.944;2022-12-31T07:05:51;16.10;;;10.40;;
44440;SDS011;30146;52.268;20.944;2022-12-31T07:08:30;19.80;;;11.90;;
44440;SDS011;30146;52.268;20.944;2022-12-31T07:11:13;18.10;;;11.80;;
44440;SDS011;30146;52.268;20.944;2022-12-31T07:13:59;18.50;;;11.20;;
44440;SDS011;30146;52.268;20.944;2022-12-31T07:16:44;19.20;;;11.40;;
44440;SDS011;30146;52.268;20.944;2022-12-31T07:21:57;29.00;;;16.50;;
44440;SDS011;30146;52.268;20.944;2022-12-31T07:24:31;26.30;;;13.70;;
44440;SDS011;30146;52.268;20.944;2022-12-31T07:27:07;17.40;;;11.00;;
44440;SDS011;30146;52.268;20.944;2022-12-31T07:30:02;19.50;;;9.80;;
44440;SDS011;30146;52.268;20.944;2022-12-31T07:32:42;19.20;;;10.70;;
44440;SDS011;30146;52.268;20.944;2022-12-31T07:35:30;18.70;;;10.70;;
44440;SDS011;30146;52.268;20.944;2022-12-31T07:38:13;18.90;;;9.50;;
44440;SDS011;30146;52.268;20.944;2022-12-31T07:40:55;16.50;;;10.10;;
44440;SDS011;30146;52.268;20.944;2022-12-31T07:43:40;17.40;;;10.20;;
44440;SDS011;30146;52.268;20.944;2022-12-31T07:46:27;17.80;;;10.20;;
44440;SDS011;30146;52.268;20.944;2022-12-31T07:49:03;18.30;;;10.30;;
44440;SDS011;30146;52.268;20.944;2022-12-31T07:51:38;19.90;;;11.00;;
44440;SDS011;30146;52.268;20.944;2022-12-31T07:54:14;17.60;;;10.60;;
44440;SDS011;30146;52.268;20.944;2022-12-31T07:56:45;17.60;;;10.40;;
44440;SDS011;30146;52.268;20.944;2022-12-31T07:59:19;16.10;;;9.50;;
44440;SDS011;30146;52.268;20.944;2022-12-31T08:02:02;15.30;;;9.70;;
44440;SDS011;30146;52.268;20.944;2022-12-31T08:04:42;15.00;;;8.60;;
44440;SDS011;30146;52.268;20.944;2022-12-31T08:07:23;16.40;;;9.50;;
44440;SDS011;30146;52.268;20.944;2022-12-31T08:10:04;16.80;;;9.90;;
44440;SDS011;30146;52.268;20.944;2022-12-31T08:12:46;14.60;;;9.00;;
44440;SDS011;30146;52.268;20.944;2022-12-31T08:15:21;15.50;;;9.90;;
44440;SDS011;30146;52.268;20.944;2022-12-31T08:17:58;14.70;;;9.00;;
44440;SDS011;30146;52.268;20.944;2022-12-31T08:20:29;14.40;;;9.00;;
44440;SDS011;30146;52.268;20.944;2022-12-31T08:23:07;14.70;;;8.90;;
44440;SDS011;30146;52.268;20.944;2022-12-31T08:25:52;16.70;;;8.50;;
44440;SDS011;30146;52.268;20.944;2022-12-31T08:28:39;12.90;;;7.80;;
44440;SDS011;30146;52.268;20.944;2022-12-31T08:31:22;14.40;;;9.60;;
44440;SDS011;30146;52.268;20.944;2022-12-31T08:34:04;15.00;;;8.40;;
44440;SDS011;30146;52.268;20.944;2022-12-31T08:36:43;27.40;;;8.90;;
44440;SDS011;30146;52.268;20.944;2022-12-31T08:39:24;14.30;;;9.10;;
44440;SDS011;30146;52.268;20.944;2022-12-31T08:42:00;12.70;;;8.60;;
44440;SDS011;30146;52.268;20.944;2022-12-31T08:44:38;27.00;;;16.70;;
44440;SDS011;30146;52.268;20.944;2022-12-31T08:47:15;15.70;;;9.70;;
44440;SDS011;30146;52.268;20.944;2022-12-31T08:49:54;16.90;;;8.90;;
44440;SDS011;30146;52.268;20.944;2022-12-31T08:52:26;12.10;;;7.90;;
44440;SDS011;30146;52.268;20.944;2022-12-31T08:54:58;15.40;;;7.90;;
44440;SDS011;30146;52.268;20.944;2022-12-31T08:57:32;13.50;;;7.70;;
44440;SDS011;30146;52.268;20.944;2022-12-31T09:00:10;13.70;;;8.40;;
44440;SDS011;30146;52.268;20.944;2022-12-31T09:02:52;10.40;;;7.40;;
44440;SDS011;30146;52.268;20.944;2022-12-31T09:05:38;13.50;;;7.70;;
44440;SDS011;30146;52.268;20.944;2022-12-31T09:08:23;11.30;;;7.60;;
44440;SDS011;30146;52.268;20.944;2022-12-31T09:11:04;16.00;;;9.00;;
44440;SDS011;30146;52.268;20.944;2022-12-31T09:13:52;9.20;;;7.10;;
44440;SDS011;30146;52.268;20.944;2022-12-31T09:16:38;19.00;;;7.40;;
44440;SDS011;30146;52.268;20.944;2022-12-31T09:19:16;14.20;;;7.20;;
44440;SDS011;30146;52.268;20.944;2022-12-31T09:21:47;9.30;;;6.20;;
44440;SDS011;30146;52.268;20.944;2022-12-31T09:24:18;11.50;;;7.20;;
44440;SDS011;30146;52.268;20.944;2022-12-31T09:26:53;9.40;;;7.50;;
44440;SDS011;30146;52.268;20.944;2022-12-31T09:29:42;10.10;;;6.90;;
44440;SDS011;30146;52.268;20.944;2022-12-31T09:32:24;11.50;;;7.00;;
44440;SDS011;30146;52.268;20.944;2022-12-31T09:35:09;16.10;;;7.20;;
44440;SDS011;30146;52.268;20.944;2022-12-31T09:37:47;10.30;;;6.60;;
44440;SDS011;30146;52.268;20.944;2022-12-31T09:43:38;14.30;;;7.80;;
44440;SDS011;30146;52.268;20.944;2022-12-31T09:49:22;10.60;;;6.40;;
44440;SDS011;30146;52.268;20.944;2022-12-31T09:52:15;9.10;;;6.40;;
44440;SDS011;30146;52.268;20.944;2022-12-31T09:54:54;8.40;;;5.60;;
44440;SDS011;30146;52.268;20.944;2022-12-31T09:57:43;10.70;;;5.50;;
44440;SDS011;30146;52.268;20.944;2022-12-31T10:00:27;8.60;;;6.10;;
44440;SDS011;30146;52.268;20.944;2022-12-31T10:03:12;9.70;;;7.10;;
44440;SDS011;30146;52.268;20.944;2022-12-31T10:05:54;9.80;;;6.50;;
44440;SDS011;30146;52.268;20.944;2022-12-31T10:08:37;8.20;;;5.90;;
44440;SDS011;30146;52.268;20.944;2022-12-31T10:11:18;8.80;;;5.90;;
44440;SDS011;30146;52.268;20.944;2022-12-31T10:14:02;8.70;;;5.80;;
44440;SDS011;30146;52.268;20.944;2022-12-31T10:16:52;10.20;;;6.00;;
44440;SDS011;30146;52.268;20.944;2022-12-31T10:19:43;9.50;;;6.40;;
44440;SDS011;30146;52.268;20.944;2022-12-31T10:22:48;9.30;;;6.00;;
44440;SDS011;30146;52.268;20.944;2022-12-31T10:25:49;8.10;;;6.30;;
44440;SDS011;30146;52.268;20.944;2022-12-31T10:28:35;8.00;;;5.80;;
44440;SDS011;30146;52.268;20.944;2022-12-31T10:31:22;14.70;;;5.90;;
44440;SDS011;30146;52.268;20.944;2022-12-31T10:34:11;7.10;;;5.20;;
44440;SDS011;30146;52.268;20.944;2022-12-31T10:36:50;7.60;;;5.70;;
44440;SDS011;30146;52.268;20.944;2022-12-31T10:39:25;6.80;;;5.60;;
44440;SDS011;30146;52.268;20.944;2022-12-31T10:54:48;8.50;;;5.20;;
44440;SDS011;30146;52.268;20.944;2022-12-31T10:57:59;9.30;;;4.90;;
44440;SDS011;30146;52.268;20.944;2022-12-31T11:01:00;8.20;;;5.20;;
44440;SDS011;30146;52.268;20.944;2022-12-31T11:03:53;7.00;;;5.10;;
44440;SDS011;30146;52.268;20.944;2022-12-31T11:16:20;8.80;;;5.00;;
44440;SDS011;30146;52.268;20.944;2022-12-31T11:19:13;8.10;;;5.30;;
44440;SDS011;30146;52.268;20.944;2022-12-31T11:21:52;9.60;;;4.20;;
44440;SDS011;30146;52.268;20.944;2022-12-31T11:24:34;7.90;;;5.40;;
44440;SDS011;30146;52.268;20.944;2022-12-31T11:27:19;7.20;;;4.80;;
44440;SDS011;30146;52.268;20.944;2022-12-31T11:30:21;7.40;;;5.10;;
44440;SDS011;30146;52.268;20.944;2022-12-31T11:32:59;7.00;;;5.10;;
44440;SDS011;30146;52.268;20.944;2022-12-31T11:35:54;7.60;;;5.00;;
44440;SDS011;30146;52.268;20.944;2022-12-31T11:38:34;8.90;;;5.70;;
44440;SDS011;30146;52.268;20.944;2022-12-31T11:41:12;6.50;;;4.70;;
44440;SDS011;30146;52.268;20.944;2022-12-31T11:43:52;5.90;;;4.60;;
44440;SDS011;30146;52.268;20.944;2022-12-31T11:46:48;7.40;;;5.30;;
44440;SDS011;30146;52.268;20.944;2022-12-31T11:49:31;9.80;;;5.80;;
44440;SDS011;30146;52.268;20.944;2022-12-31T11:52:18;8.90;;;5.50;;
44440;SDS011;30146;52.268;20.944;2022-12-31T11:55:13;9.70;;;5.40;;
44440;SDS011;30146;52.268;20.944;2022-12-31T11:57:58;8.90;;;5.40;;
44440;SDS011;30146;52.268;20.944;2022-12-31T12:00:39;10.70;;;5.10;;
44440;SDS011;30146;52.268;20.944;2022-12-31T12:03:20;9.10;;;5.00;;
44440;SDS011;30146;52.268;20.944;2022-12-31T12:05:52;9.90;;;6.00;;
44440;SDS011;30146;52.268;20.944;2022-12-31T12:08:24;11.20;;;5.70;;
44440;SDS011;30146;52.268;20.944;2022-12-31T12:11:02;7.40;;;4.90;;
44440;SDS011;30146;52.268;20.944;2022-12-31T12:13:35;7.80;;;5.10;;
44440;SDS011;30146;52.268;20.944;2022-12-31T12:16:06;8.20;;;5.20;;
44440;SDS011;30146;52.268;20.944;2022-12-31T12:18:41;10.60;;;4.70;;
44440;SDS011;30146;52.268;20.944;2022-12-31T12:21:16;7.30;;;4.90;;
44440;SDS011;30146;52.268;20.944;2022-12-31T12:23:54;10.80;;;5.20;;
44440;SDS011;30146;52.268;20.944;2022-12-31T12:26:29;9.20;;;4.40;;
44440;SDS011;30146;52.268;20.944;2022-12-31T12:29:09;7.50;;;4.80;;
44440;SDS011;30146;52.268;20.944;2022-12-31T12:31:54;6.90;;;4.50;;
44440;SDS011;30146;52.268;20.944;2022-12-31T12:34:27;7.80;;;4.70;;
44440;SDS011;30146;52.268;20.944;2022-12-31T12:37:00;7.60;;;4.70;;
44440;SDS011;30146;52.268;20.944;2022-12-31T12:39:32;7.80;;;4.10;;
44440;SDS011;30146;52.268;20.944;2022-12-31T12:42:04;6.80;;;4.80;;
44440;SDS011;30146;52.268;20.944;2022-12-31T12:44:40;8.90;;;4.10;;
44440;SDS011;30146;52.268;20.944;2022-12-31T12:47:13;11.30;;;5.30;;
44440;SDS011;30146;52.268;20.944;2022-12-31T12:49:47;7.50;;;5.40;;
44440;SDS011;30146;52.268;20.944;2022-12-31T12:52:27;7.30;;;4.40;;
44440;SDS011;30146;52.268;20.944;2022-12-31T12:55:13;9.70;;;4.90;;
44440;SDS011;30146;52.268;20.944;2022-12-31T12:57:51;8.90;;;5.00;;
44440;SDS011;30146;52.268;20.944;2022-12-31T13:00:29;8.70;;;5.30;;
44440;SDS011;30146;52.268;20.944;2022-12-31T13:03:18;7.80;;;5.20;;
44440;SDS011;30146;52.268;20.944;2022-12-31T13:06:32;6.80;;;4.30;;
44440;SDS011;30146;52.268;20.944;2022-12-31T13:09:20;8.40;;;5.50;;
44440;SDS011;30146;52.268;20.944;2022-12-31T13:12:02;7.30;;;4.30;;
44440;SDS011;30146;52.268;20.944;2022-12-31T13:14:42;9.70;;;6.10;;
44440;SDS011;30146;52.268;20.944;2022-12-31T13:20:30;8.70;;;4.30;;
